createdAt,value
2019-02-20T00:01:34.858Z,78.65
2019-02-20T00:04:15.899Z,78.58
2019-02-20T00:06:45.442Z,78.51
2019-02-20T00:09:14.858Z,78.53
2019-02-20T00:11:44.313Z,78.45
2019-02-20T00:17:11.216Z,78.61
2019-02-20T00:19:40.665Z,78.30
2019-02-20T00:22:10.040Z,78.25
2019-02-20T00:27:15.947Z,78.17
2019-02-20T00:30:03.131Z,78.14
2019-02-20T00:32:32.480Z,78.14
2019-02-20T00:35:01.948Z,78.09
2019-02-20T00:37:31.322Z,78.07
2019-02-20T00:40:00.740Z,78.04
2019-02-20T00:42:30.229Z,78.05
2019-02-20T00:45:25.258Z,78.08
2019-02-20T00:48:34.080Z,78.04
2019-02-20T00:51:41.469Z,78.00
2019-02-20T00:54:10.996Z,77.96
2019-02-20T00:56:40.380Z,77.98
2019-02-20T00:59:09.764Z,78.05
2019-02-20T01:01:39.209Z,78.08
2019-02-20T01:04:08.589Z,78.03
2019-02-20T01:06:49.429Z,77.96
2019-02-20T01:12:12.398Z,77.95
2019-02-20T01:14:43.902Z,77.90
2019-02-20T01:17:14.054Z,77.88
2019-02-20T01:22:18.274Z,78.07
2019-02-20T01:24:59.367Z,78.09
2019-02-20T01:27:28.886Z,78.11
2019-02-20T01:29:58.491Z,78.17
2019-02-20T01:32:27.948Z,78.19
2019-02-20T01:34:57.360Z,78.23
2019-02-20T01:37:26.947Z,78.18
2019-02-20T01:39:56.779Z,78.18
2019-02-20T01:42:26.373Z,78.17
2019-02-20T01:45:15.116Z,78.14
2019-02-20T01:47:55.581Z,78.09
2019-02-20T01:50:25.262Z,78.01
2019-02-20T01:53:13.707Z,78.02
2019-02-20T01:58:25.143Z,78.06
2019-02-20T02:01:37.927Z,78.03
2019-02-20T02:06:45.840Z,78.10
2019-02-20T02:09:15.271Z,78.19
2019-02-20T02:14:33.720Z,78.13
2019-02-20T02:17:03.216Z,78.12
2019-02-20T02:19:32.622Z,78.05
2019-02-20T02:24:37.280Z,77.93
2019-02-20T02:27:06.823Z,77.94
2019-02-20T02:29:36.234Z,77.91
2019-02-20T02:32:05.657Z,77.91
2019-02-20T02:34:35.044Z,77.85
2019-02-20T02:37:04.497Z,77.81
2019-02-20T02:42:22.502Z,77.75
2019-02-20T02:44:52.180Z,77.75
2019-02-20T02:47:21.778Z,77.69
2019-02-20T02:50:10.156Z,77.69
2019-02-20T02:52:41.344Z,77.53
2019-02-20T02:55:10.834Z,77.62
2019-02-20T02:57:41.253Z,77.62
2019-02-20T03:00:11.005Z,77.58
2019-02-20T03:02:40.417Z,77.51
2019-02-20T03:05:21.588Z,77.40
2019-02-20T03:07:51.060Z,77.35
2019-02-20T03:10:20.435Z,77.25
2019-02-20T03:12:52.236Z,77.13
2019-02-20T03:15:21.638Z,77.00
2019-02-20T03:17:51.007Z,76.88
2019-02-20T03:20:40.950Z,76.77
2019-02-20T03:23:10.379Z,76.69
2019-02-20T03:25:39.791Z,76.51
2019-02-20T03:30:43.965Z,76.37
2019-02-20T03:36:06.828Z,76.31
2019-02-20T03:38:36.768Z,76.26
2019-02-20T03:41:06.268Z,76.26
2019-02-20T03:43:35.682Z,76.19
2019-02-20T03:46:05.144Z,76.19
2019-02-20T03:48:34.559Z,76.20
2019-02-20T03:51:03.967Z,76.06
2019-02-20T03:53:33.638Z,75.94
2019-02-20T03:56:03.103Z,75.77
2019-02-20T03:58:33.362Z,75.70
2019-02-20T04:01:02.765Z,75.70
2019-02-20T04:03:52.516Z,75.64
2019-02-20T04:08:59.068Z,75.72
2019-02-20T04:11:39.958Z,75.82
2019-02-20T04:16:43.882Z,75.77
2019-02-20T04:21:48.453Z,75.90
2019-02-20T04:24:30.764Z,75.93
2019-02-20T04:27:00.233Z,76.03
2019-02-20T04:32:18.127Z,75.73
2019-02-20T04:34:47.796Z,75.54
2019-02-20T04:37:17.245Z,74.36
2019-02-20T04:39:54.896Z,73.39
2019-02-20T04:42:24.494Z,73.39
2019-02-20T04:44:54.142Z,72.25
2019-02-20T04:50:18.821Z,70.39
2019-02-20T04:52:51.382Z,69.21
2019-02-20T04:55:20.779Z,68.91
2019-02-20T04:58:22.597Z,68.56
2019-02-20T05:00:52.170Z,67.21
2019-02-20T05:03:23.258Z,67.21
2019-02-20T05:05:53.719Z,67.00
2019-02-20T05:08:35.302Z,67.00
2019-02-20T05:11:04.808Z,66.67
2019-02-20T05:13:34.222Z,66.38
2019-02-20T05:16:06.665Z,65.80
2019-02-20T05:18:36.093Z,65.88
2019-02-20T05:21:25.978Z,65.70
2019-02-20T05:23:55.654Z,65.49
2019-02-20T05:26:25.360Z,65.57
2019-02-20T05:29:13.837Z,64.95
2019-02-20T05:31:43.302Z,64.95
2019-02-20T05:34:12.702Z,65.08
2019-02-20T05:36:42.228Z,64.94
2019-02-20T05:39:11.613Z,64.93
2019-02-20T05:41:41.049Z,64.96
2019-02-20T05:44:10.521Z,64.30
2019-02-20T05:46:40.015Z,64.49
2019-02-20T05:49:09.530Z,64.18
2019-02-20T05:51:38.947Z,64.18
2019-02-20T05:54:08.349Z,63.49
2019-02-20T05:56:56.714Z,63.49
2019-02-20T05:59:26.304Z,63.53
2019-02-20T06:04:44.374Z,63.23
2019-02-20T06:07:16.343Z,62.51
2019-02-20T06:09:46.122Z,63.21
2019-02-20T06:12:18.066Z,62.55
2019-02-20T06:14:47.580Z,62.55
2019-02-20T06:17:17.356Z,62.36
2019-02-20T06:20:06.006Z,62.16
2019-02-20T06:22:54.495Z,61.86
2019-02-20T06:25:24.126Z,61.86
2019-02-20T06:27:53.691Z,62.14
2019-02-20T06:30:42.337Z,62.00
2019-02-20T06:33:11.789Z,60.76
2019-02-20T06:35:41.171Z,60.76
2019-02-20T06:38:11.545Z,61.32
2019-02-20T06:40:41.245Z,60.40
2019-02-20T06:43:14.784Z,60.64
2019-02-20T06:45:44.286Z,60.58
2019-02-20T06:48:13.709Z,61.09
2019-02-20T06:51:03.149Z,60.21
2019-02-20T06:53:32.661Z,60.21
2019-02-20T06:56:21.088Z,59.39
2019-02-20T06:59:14.060Z,60.03
2019-02-20T07:01:55.122Z,58.38
2019-02-20T07:04:24.554Z,58.38
2019-02-20T07:07:32.006Z,58.45
2019-02-20T07:10:13.126Z,57.88
2019-02-20T07:13:09.027Z,56.77
2019-02-20T07:15:59.687Z,56.89
2019-02-20T07:22:23.958Z,55.91
2019-02-20T07:25:05.303Z,55.25
2019-02-20T07:28:13.202Z,54.41
2019-02-20T07:30:43.646Z,54.63
2019-02-20T07:33:13.129Z,54.49
2019-02-20T07:35:42.563Z,54.04
2019-02-20T07:38:12.096Z,53.28
2019-02-20T07:40:41.578Z,53.73
2019-02-20T07:43:11.108Z,52.67
2019-02-20T07:45:43.918Z,52.32
2019-02-20T07:48:13.369Z,53.11
2019-02-20T07:50:42.812Z,51.33
2019-02-20T07:53:31.119Z,51.17
2019-02-20T07:56:00.782Z,51.63
2019-02-20T07:58:30.334Z,50.74
2019-02-20T08:00:59.711Z,49.88
2019-02-20T08:03:29.774Z,50.48
2019-02-20T08:06:18.179Z,49.51
2019-02-20T08:08:59.128Z,49.03
2019-02-20T08:11:29.174Z,49.20
2019-02-20T08:13:58.596Z,47.64
2019-02-20T08:16:33.425Z,47.92
2019-02-20T08:19:02.890Z,48.60
2019-02-20T08:21:32.287Z,48.61
2019-02-20T08:24:02.452Z,46.56
2019-02-20T08:26:31.882Z,47.37
2019-02-20T08:29:01.288Z,46.06
2019-02-20T08:31:30.821Z,46.30
2019-02-20T08:34:00.363Z,46.16
2019-02-20T08:36:29.702Z,45.65
2019-02-20T08:38:59.157Z,45.04
2019-02-20T08:41:28.664Z,44.62
2019-02-20T08:43:58.096Z,44.67
2019-02-20T08:46:48.501Z,44.12
2019-02-20T08:49:17.913Z,44.12
2019-02-20T08:55:01.179Z,43.10
2019-02-20T08:57:41.796Z,42.17
2019-02-20T09:00:23.352Z,42.17
2019-02-20T09:02:57.322Z,42.08
2019-02-20T09:05:26.734Z,42.08
2019-02-20T09:07:56.244Z,42.19
2019-02-20T09:10:25.768Z,43.14
2019-02-20T09:12:57.368Z,42.56
2019-02-20T09:15:26.746Z,41.74
2019-02-20T09:17:56.230Z,41.16
2019-02-20T09:20:25.717Z,41.94
2019-02-20T09:25:47.080Z,40.94
2019-02-20T09:28:16.503Z,40.00
2019-02-20T09:30:46.090Z,39.62
2019-02-20T09:33:16.124Z,39.87
2019-02-20T09:35:45.485Z,40.25
2019-02-20T09:38:14.888Z,40.30
2019-02-20T09:40:44.321Z,39.92
2019-02-20T09:46:02.380Z,38.98
2019-02-20T09:48:31.819Z,38.68
2019-02-20T09:51:01.252Z,38.65
2019-02-20T09:53:31.075Z,38.72
2019-02-20T09:56:00.468Z,38.67
2019-02-20T09:58:29.867Z,38.04
2019-02-20T10:00:59.530Z,37.33
2019-02-20T10:03:29.195Z,37.50
2019-02-20T10:05:58.598Z,37.50
2019-02-20T10:08:28.247Z,37.06
2019-02-20T10:10:57.671Z,36.92
2019-02-20T10:13:27.368Z,37.29
2019-02-20T10:16:15.752Z,36.49
2019-02-20T10:21:39.792Z,37.46
2019-02-20T10:24:09.248Z,35.52
2019-02-20T10:26:38.678Z,36.01
2019-02-20T10:29:08.122Z,35.79
2019-02-20T10:31:39.951Z,36.84
2019-02-20T10:34:11.169Z,36.87
2019-02-20T10:36:40.755Z,35.59
2019-02-20T10:39:24.099Z,35.73
2019-02-20T10:41:53.630Z,34.67
2019-02-20T10:44:23.364Z,35.45
2019-02-20T10:46:52.973Z,34.85
2019-02-20T10:49:23.786Z,34.09
2019-02-20T10:51:53.427Z,34.23
2019-02-20T10:54:26.525Z,34.42
2019-02-20T10:59:30.564Z,34.40
2019-02-20T11:02:00.224Z,34.24
2019-02-20T11:04:30.883Z,33.20
2019-02-20T11:07:00.367Z,32.40
2019-02-20T11:09:29.829Z,32.14
2019-02-20T11:11:59.351Z,31.58
2019-02-20T11:14:28.856Z,31.57
2019-02-20T11:16:58.319Z,31.27
2019-02-20T11:19:27.877Z,32.00
2019-02-20T11:21:57.391Z,32.37
2019-02-20T11:24:26.837Z,32.13
2019-02-20T11:26:56.331Z,31.77
2019-02-20T11:29:26.025Z,31.61
2019-02-20T11:31:56.580Z,31.18
2019-02-20T11:34:27.149Z,31.46
2019-02-20T11:36:56.614Z,32.00
2019-02-20T11:39:26.672Z,30.84
2019-02-20T11:41:56.452Z,31.12
2019-02-20T11:44:25.998Z,31.08
2019-02-20T11:46:57.671Z,32.34
2019-02-20T11:49:27.094Z,33.24
2019-02-20T11:51:56.552Z,30.92
2019-02-20T11:54:26.069Z,30.78
2019-02-20T11:56:55.498Z,30.06
2019-02-20T11:59:27.729Z,31.57
2019-02-20T12:01:57.197Z,32.32
2019-02-20T12:04:26.618Z,31.26
2019-02-20T12:06:58.759Z,31.94
2019-02-20T12:09:28.292Z,33.33
2019-02-20T12:11:57.751Z,33.21
2019-02-20T12:14:27.221Z,33.20
2019-02-20T12:16:56.616Z,33.15
2019-02-20T12:19:26.341Z,33.29
2019-02-20T12:21:55.866Z,33.86
2019-02-20T12:24:25.425Z,34.33
2019-02-20T12:29:43.517Z,35.61
2019-02-20T12:32:13.035Z,36.72
2019-02-20T12:34:42.514Z,37.72
2019-02-20T12:39:47.111Z,36.85
2019-02-20T12:42:28.151Z,36.36
2019-02-20T12:47:50.921Z,37.59
2019-02-20T12:50:20.386Z,37.60
2019-02-20T12:52:49.832Z,37.46
2019-02-20T12:55:19.352Z,38.00
2019-02-20T12:57:48.846Z,37.91
2019-02-20T13:05:43.804Z,37.88
2019-02-20T13:08:13.212Z,37.57
2019-02-20T13:10:42.617Z,36.21
2019-02-20T13:13:12.110Z,36.78
2019-02-20T13:15:41.673Z,37.08
2019-02-20T13:18:11.060Z,37.66
2019-02-20T13:20:40.534Z,37.56
2019-02-20T13:23:10.010Z,36.31
2019-02-20T13:25:39.391Z,36.85
2019-02-20T13:28:08.862Z,36.58
2019-02-20T13:30:38.514Z,37.56
2019-02-20T13:33:07.897Z,38.27
2019-02-20T13:35:37.340Z,38.19
2019-02-20T13:38:06.759Z,37.77
2019-02-20T13:40:36.192Z,38.10
2019-02-20T13:43:18.944Z,37.63
2019-02-20T13:45:50.649Z,37.75
2019-02-20T13:48:20.142Z,37.68
2019-02-20T13:50:54.338Z,38.21
2019-02-20T13:56:24.195Z,39.15
2019-02-20T13:58:54.220Z,38.83
2019-02-20T14:01:23.673Z,37.96
2019-02-20T14:03:55.840Z,38.15
2019-02-20T14:06:25.494Z,37.40
2019-02-20T14:08:55.475Z,37.56
2019-02-20T14:11:27.055Z,38.21
2019-02-20T14:13:56.707Z,37.67
2019-02-20T14:16:28.986Z,38.10
2019-02-20T14:18:58.870Z,37.68
2019-02-20T14:21:28.463Z,37.86
2019-02-20T14:23:57.843Z,38.14
2019-02-20T14:26:27.285Z,38.00
2019-02-20T14:28:56.712Z,38.27
2019-02-20T14:31:26.366Z,37.73
2019-02-20T14:34:16.306Z,37.46
2019-02-20T14:39:29.437Z,38.47
2019-02-20T14:42:00.966Z,38.95
2019-02-20T14:44:30.440Z,39.16
2019-02-20T14:46:59.854Z,39.45
2019-02-20T14:49:29.227Z,39.52
2019-02-20T14:52:01.041Z,39.68
2019-02-20T14:54:30.816Z,40.00
2019-02-20T14:57:00.237Z,40.10
2019-02-20T14:59:48.524Z,40.51
2019-02-20T15:02:32.889Z,40.21
2019-02-20T15:05:02.478Z,40.70
2019-02-20T15:07:33.777Z,40.56
2019-02-20T15:10:03.054Z,40.63
2019-02-20T15:12:32.489Z,40.79
2019-02-20T15:15:10.358Z,41.41
2019-02-20T15:17:33.179Z,42.19
2019-02-20T15:20:02.632Z,42.78
2019-02-20T15:22:32.092Z,43.59
2019-02-20T15:25:01.512Z,44.02
2019-02-20T15:27:30.933Z,44.41
2019-02-20T15:30:00.311Z,44.85
2019-02-20T15:32:29.784Z,45.40
2019-02-20T15:34:59.255Z,45.14
2019-02-20T15:37:28.648Z,46.25
2019-02-20T15:39:58.038Z,46.63
2019-02-20T15:42:27.442Z,46.83
2019-02-20T15:44:56.896Z,47.03
2019-02-20T15:47:45.419Z,47.31
2019-02-20T15:50:15.349Z,47.64
2019-02-20T15:52:44.732Z,47.83
2019-02-20T15:55:34.705Z,48.06
2019-02-20T15:58:16.294Z,48.52
2019-02-20T16:00:46.837Z,48.52
2019-02-20T16:03:35.309Z,49.46
2019-02-20T16:06:16.265Z,49.46
2019-02-20T16:08:46.008Z,49.24
2019-02-20T16:11:15.376Z,49.38
2019-02-20T16:13:44.839Z,49.55
2019-02-20T16:16:14.393Z,49.84
2019-02-20T16:18:43.864Z,49.98
2019-02-20T16:21:13.390Z,50.07
2019-02-20T16:23:44.716Z,50.33
2019-02-20T16:26:14.117Z,50.50
2019-02-20T16:28:43.607Z,50.73
2019-02-20T16:31:12.975Z,50.94
2019-02-20T16:34:01.351Z,51.13
2019-02-20T16:36:30.767Z,51.23
2019-02-20T16:39:00.160Z,51.60
2019-02-20T16:41:29.732Z,52.15
2019-02-20T16:43:59.114Z,52.84
2019-02-20T16:46:28.597Z,53.03
2019-02-20T16:48:58.081Z,53.18
2019-02-20T16:51:27.617Z,53.49
2019-02-20T16:53:57.200Z,53.68
2019-02-20T16:56:26.765Z,54.03
2019-02-20T16:58:56.380Z,54.49
2019-02-20T17:01:25.971Z,54.93
2019-02-20T17:03:55.599Z,55.27
2019-02-20T17:06:25.205Z,55.47
2019-02-20T17:09:07.346Z,55.52
2019-02-20T17:11:37.780Z,55.70
2019-02-20T17:14:07.233Z,55.70
2019-02-20T17:16:49.699Z,55.76
2019-02-20T17:19:19.327Z,56.00
2019-02-20T17:21:49.142Z,56.40
2019-02-20T17:24:39.213Z,56.40
2019-02-20T17:27:08.825Z,56.32
2019-02-20T17:29:41.260Z,56.37
2019-02-20T17:32:10.664Z,56.37
2019-02-20T17:34:40.219Z,56.17
2019-02-20T17:37:09.702Z,56.08
2019-02-20T17:39:40.041Z,56.16
2019-02-20T17:42:10.055Z,56.72
2019-02-20T17:45:17.510Z,56.94
2019-02-20T17:53:00.692Z,57.42
2019-02-20T17:55:42.775Z,58.40
2019-02-20T18:03:34.406Z,58.29
2019-02-20T18:06:03.884Z,58.97
2019-02-20T18:08:33.372Z,59.51
2019-02-20T18:11:03.946Z,60.31
2019-02-20T18:13:33.301Z,60.31
2019-02-20T18:16:03.653Z,60.55
2019-02-20T18:18:52.479Z,60.98
2019-02-20T18:21:40.985Z,60.59
2019-02-20T18:24:10.547Z,60.79
2019-02-20T18:26:39.964Z,60.79
2019-02-20T18:29:09.928Z,60.76
2019-02-20T18:31:39.462Z,61.83
2019-02-20T18:34:08.963Z,61.73
2019-02-20T18:36:38.431Z,61.73
2019-02-20T18:39:08.991Z,62.01
2019-02-20T18:41:58.323Z,62.38
2019-02-20T18:44:39.654Z,62.38
2019-02-20T18:47:09.090Z,62.46
2019-02-20T18:49:39.121Z,62.93
2019-02-20T18:52:09.732Z,62.93
2019-02-20T18:57:20.802Z,63.77
2019-02-20T18:59:50.488Z,63.77
2019-02-20T19:02:39.010Z,64.30
2019-02-20T19:07:57.647Z,64.25
2019-02-20T19:10:50.890Z,63.68
2019-02-20T19:16:48.305Z,62.77
2019-02-20T19:19:29.871Z,63.28
2019-02-20T19:22:40.418Z,63.93
2019-02-20T19:25:40.424Z,63.91
2019-02-20T19:28:48.506Z,63.49
2019-02-20T19:31:42.061Z,63.81
2019-02-20T19:34:40.268Z,63.70
2019-02-20T19:37:34.307Z,63.69
2019-02-20T19:40:45.206Z,63.66
2019-02-20T19:43:53.940Z,63.66
2019-02-20T19:47:01.365Z,64.23
2019-02-20T19:50:08.747Z,64.17
2019-02-20T19:53:04.928Z,64.64
2019-02-20T19:55:45.633Z,64.26
2019-02-20T20:01:55.494Z,64.81
2019-02-20T20:04:57.039Z,64.69
2019-02-20T20:07:55.239Z,65.00
2019-02-20T20:11:08.877Z,65.00
2019-02-20T20:14:16.284Z,64.60
2019-02-20T20:17:24.098Z,64.82
2019-02-20T20:20:19.023Z,64.61
2019-02-20T20:23:26.537Z,64.49
2019-02-20T20:26:34.053Z,64.49
2019-02-20T20:29:15.333Z,64.46
2019-02-20T20:31:56.594Z,64.28
2019-02-20T20:35:04.013Z,64.08
2019-02-20T20:37:55.294Z,64.08
2019-02-20T20:40:42.932Z,64.18
2019-02-20T20:43:23.820Z,64.01
2019-02-20T20:46:04.586Z,64.59
2019-02-20T20:48:46.389Z,64.06
2019-02-20T20:51:56.937Z,64.06
2019-02-20T20:55:00.516Z,64.22
2019-02-20T20:57:45.195Z,64.47
2019-02-20T21:00:52.847Z,64.39
2019-02-20T21:03:22.334Z,64.77
2019-02-20T21:06:14.170Z,64.77
2019-02-20T21:09:08.197Z,64.77
2019-02-20T21:12:15.724Z,64.77
2019-02-20T21:15:10.666Z,65.42
2019-02-20T21:18:18.426Z,64.60
2019-02-20T21:20:59.307Z,65.41
2019-02-20T21:27:11.650Z,65.64
2019-02-20T21:30:07.215Z,64.98
2019-02-20T21:32:48.703Z,63.92
2019-02-20T21:35:43.378Z,63.78
2019-02-20T21:38:27.144Z,63.78
2019-02-20T21:41:29.125Z,63.20
2019-02-20T21:44:48.512Z,63.20
2019-02-20T21:47:41.128Z,64.07
2019-02-20T21:50:48.628Z,63.18
2019-02-20T21:53:56.046Z,63.18
2019-02-20T21:56:30.107Z,63.61
2019-02-20T21:59:39.443Z,64.03
2019-02-20T22:02:22.293Z,62.58
2019-02-20T22:05:03.840Z,63.59
2019-02-20T22:07:44.764Z,63.59
2019-02-20T22:10:48.047Z,63.43
2019-02-20T22:13:55.524Z,63.45
2019-02-20T22:17:02.945Z,63.45
2019-02-20T22:19:59.502Z,63.26
2019-02-20T22:23:06.945Z,62.70
2019-02-20T22:26:00.168Z,62.70
2019-02-20T22:29:07.595Z,62.64
2019-02-20T22:34:52.013Z,62.36
2019-02-20T22:37:59.433Z,62.70
2019-02-20T22:41:06.803Z,62.58
2019-02-20T22:44:14.625Z,62.68
2019-02-20T22:47:28.323Z,63.37
2019-02-20T22:50:36.936Z,63.37
2019-02-20T22:53:44.308Z,63.07
2019-02-20T22:56:51.794Z,62.77
2019-02-20T23:00:01.884Z,62.77
2019-02-20T23:02:56.814Z,63.14
2019-02-20T23:06:04.437Z,63.24
2019-02-20T23:08:45.253Z,63.01
2019-02-20T23:11:59.242Z,63.01
2019-02-20T23:14:55.032Z,62.85
2019-02-20T23:17:28.455Z,62.98
2019-02-20T23:20:17.123Z,63.11
2019-02-20T23:22:46.871Z,63.11
2019-02-20T23:25:35.682Z,62.79
2019-02-20T23:28:05.118Z,62.79
2019-02-20T23:30:34.663Z,62.80
2019-02-20T23:33:04.155Z,62.80
2019-02-20T23:35:35.468Z,62.37
2019-02-20T23:38:04.994Z,62.23
2019-02-20T23:40:53.544Z,61.33
2019-02-20T23:46:11.577Z,61.39
2019-02-20T23:48:53.485Z,61.24
2019-02-20T23:51:12.740Z,61.04
2019-02-20T23:56:22.460Z,61.03
2019-02-20T23:59:13.677Z,61.21
